Time;durP1;ratioP1;P1;durP2;ratioP2;P2;SDS_P1;SDS_P2;PMS_P1;PMS_P2;Temp;Humidity;BMP_temperature;BMP_pressure;BME280_temperature;BME280_humidity;BME280_pressure;Samples;Min_cycle;Max_cycle;Signal;HPM_P1;HPM_P2
2021/01/03 00:00:46;;;;;;;19.27;17.38;;;;;;;4.59;100.00;99529.31;5095284;28;20055;-76
2021/01/03 00:03:50;;;;;;;20.45;18.45;;;;;;;4.59;100.00;99517.88;5096019;28;20110;-78
2021/01/03 00:06:56;;;;;;;20.35;18.40;;;;;;;4.48;100.00;99513.38;5096174;28;20062;-77
2021/01/03 00:10:00;;;;;;;21.63;19.42;;;;;;;4.57;100.00;99515.31;5095851;28;20051;-77
2021/01/03 00:13:04;;;;;;;21.08;19.05;;;;;;;4.59;100.00;99525.84;5083375;28;20063;-77
2021/01/03 00:16:09;;;;;;;22.42;20.13;;;;;;;4.59;100.00;99525.84;5095477;28;20071;-77
2021/01/03 00:19:13;;;;;;;21.92;19.83;;;;;;;4.60;100.00;99527.53;5095847;28;20067;-77
2021/01/03 00:22:17;;;;;;;20.88;18.83;;;;;;;4.67;100.00;99543.88;5095743;28;20055;-77
2021/01/03 00:25:24;;;;;;;21.90;19.80;;;;;;;4.56;100.00;99540.22;5095641;28;20051;-78
2021/01/03 00:28:28;;;;;;;24.40;21.88;;;;;;;4.61;100.00;99539.84;5095544;28;20051;-77
2021/01/03 00:31:37;;;;;;;21.33;19.13;;;;;;;4.64;100.00;99550.25;5095297;28;20059;-77
2021/01/03 00:34:41;;;;;;;23.65;21.35;;;;;;;4.63;100.00;99548.56;5082495;28;20047;-77
2021/01/03 00:37:46;;;;;;;22.23;19.52;;;;;;;4.70;100.00;99551.56;5071315;28;20039;-78
2021/01/03 00:40:51;;;;;;;20.92;18.90;;;;;;;4.70;100.00;99536.47;5095205;28;20051;-78
2021/01/03 00:43:55;;;;;;;20.02;18.13;;;;;;;4.71;100.00;99545.31;5095218;28;20502;-77
2021/01/03 00:46:59;;;;;;;20.48;18.48;;;;;;;4.70;100.00;99538.28;5095103;28;20047;-77
2021/01/03 00:50:09;;;;;;;19.98;18.00;;;;;;;4.72;100.00;99546.97;5095220;28;20051;-77
2021/01/03 00:53:13;;;;;;;19.65;17.70;;;;;;;4.71;100.00;99547.97;5082463;28;20059;-78
2021/01/03 00:56:17;;;;;;;16.75;15.13;;;;;;;4.76;100.00;99548.47;5094735;28;20047;-77
2021/01/03 00:59:21;;;;;;;;;;;;;;;4.68;100.00;99551.72;5095366;28;20486;-78
2021/01/03 01:02:25;;;;;;;14.75;13.30;;;;;;;4.70;100.00;99538.28;5082104;28;19916;-78
2021/01/03 01:05:30;;;;;;;14.60;13.20;;;;;;;4.67;100.00;99550.00;5094740;28;20059;-78
2021/01/03 01:08:35;;;;;;;14.82;13.32;;;;;;;4.66;100.00;99544.81;5082227;28;20055;-78
2021/01/03 01:11:42;;;;;;;16.65;13.52;;;;;;;4.70;100.00;99532.97;5094067;28;20055;-78
2021/01/03 01:14:46;;;;;;;14.75;13.25;;;;;;;4.71;100.00;99537.34;5094635;28;20063;-78
2021/01/03 01:17:53;;;;;;;13.77;12.38;;;;;;;4.74;100.00;99556.53;5094681;28;20047;-77
2021/01/03 01:20:57;;;;;;;13.13;11.77;;;;;;;4.76;100.00;99559.94;5094565;28;20108;-77
2021/01/03 01:24:02;;;;;;;12.32;11.13;;;;;;;4.73;99.86;99546.88;5082023;28;20071;-78
2021/01/03 01:27:06;;;;;;;12.77;11.20;;;;;;;4.70;100.00;99555.09;5094193;28;20051;-78
2021/01/03 01:30:12;;;;;;;12.10;10.90;;;;;;;4.74;99.90;99569.00;5081868;28;20047;-76
2021/01/03 01:33:18;;;;;;;12.23;10.95;;;;;;;4.73;99.82;99565.50;5094352;28;20047;-77
2021/01/03 01:36:23;;;;;;;12.07;10.88;;;;;;;4.74;100.00;99569.81;5081008;28;20051;-77
2021/01/03 01:39:27;;;;;;;12.20;11.00;;;;;;;4.64;99.66;99568.00;5094126;28;20051;-77
2021/01/03 01:42:31;;;;;;;11.73;10.52;;;;;;;4.72;99.91;99579.75;5094054;28;20062;-77
2021/01/03 01:45:39;;;;;;;16.15;11.43;;;;;;;4.72;99.52;99579.75;5094083;28;20062;-77
2021/01/03 01:48:46;;;;;;;13.70;12.40;;;;;;;4.72;99.99;99579.75;5081057;28;20067;-78
2021/01/03 01:51:53;;;;;;;13.75;12.45;;;;;;;4.69;99.46;99576.47;5093426;28;20059;-78
2021/01/03 01:55:04;;;;;;;14.10;12.70;;;;;;;4.62;99.96;99573.44;5081619;28;20051;-78
2021/01/03 01:58:16;;;;;;;15.80;13.90;;;;;;;4.63;99.71;99592.88;5081645;28;20461;-79
2021/01/03 02:01:28;;;;;;;14.65;13.23;;;;;;;4.64;100.00;99589.28;5081474;28;20426;-78
2021/01/03 02:04:53;;;;;;;14.48;12.98;;;;;;;4.68;100.00;99598.69;5093829;28;20047;-77
2021/01/03 02:08:05;;;;;;;15.57;13.95;;;;;;;4.72;100.00;99597.50;5093938;28;20047;-77
2021/01/03 02:11:15;;;;;;;14.57;13.07;;;;;;;4.79;100.00;99598.75;5093647;28;20055;-77
2021/01/03 02:14:19;;;;;;;14.10;12.65;;;;;;;4.72;100.00;99586.84;5100010;28;20488;-78
2021/01/03 02:17:24;;;;;;;16.00;14.40;;;;;;;4.74;100.00;99590.28;5113420;28;20047;-78
2021/01/03 02:20:52;;;;;;;15.18;13.68;;;;;;;4.73;100.00;99594.72;5089247;28;20046;-78
2021/01/03 02:24:40;;;;;;;14.88;13.38;;;;;;;4.78;100.00;99597.03;5120731;28;20051;-78
2021/01/03 02:28:12;;;;;;;15.20;13.70;;;;;;;4.82;100.00;99599.34;5113884;28;20046;-78
2021/01/03 02:31:23;;;;;;;14.40;12.88;;;;;;;4.82;100.00;99598.50;5113792;28;20075;-79
2021/01/03 02:34:41;;;;;;;14.05;12.65;;;;;;;4.83;100.00;99600.19;5113431;28;20366;-77
2021/01/03 02:37:48;;;;;;;14.32;12.93;;;;;;;4.83;100.00;99598.38;5101349;28;20047;-77
2021/01/03 02:40:53;;;;;;;15.98;14.27;;;;;;;4.79;100.00;99596.91;5113651;28;20047;-77
2021/01/03 02:43:58;;;;;;;17.90;16.00;;;;;;;4.81;100.00;99599.47;5113928;28;20070;-77
2021/01/03 02:47:03;;;;;;;17.35;15.55;;;;;;;4.80;100.00;99605.75;5113870;28;20043;-78
2021/01/03 02:50:12;;;;;;;17.42;15.63;;;;;;;4.87;100.00;99605.16;5113413;28;20497;-76
2021/01/03 02:53:18;;;;;;;15.52;13.93;;;;;;;4.88;100.00;99600.69;5101057;28;20047;-77
2021/01/03 02:56:23;;;;;;;15.93;14.32;;;;;;;4.83;100.00;99603.72;5113448;28;20050;-77
2021/01/03 02:59:27;;;;;;;16.95;15.15;;;;;;;4.83;100.00;99608.16;5113332;28;20508;-76
2021/01/03 03:02:31;;;;;;;16.90;15.10;;;;;;;4.83;100.00;99600.19;5113531;28;20055;-77
2021/01/03 03:05:35;;;;;;;;;;;;;;;4.80;100.00;99605.75;5113942;28;20050;-77
2021/01/03 03:08:40;;;;;;;;;;;;;;;4.74;100.00;99603.56;5113987;28;19916;-78
2021/01/03 03:11:45;;;;;;;;;;;;;;;4.74;100.00;99608.88;5114147;28;19915;-77
2021/01/03 03:14:49;;;;;;;17.83;15.48;;;;;;;4.78;100.00;99602.34;5113559;28;19916;-77
2021/01/03 03:17:54;;;;;;;16.73;15.00;;;;;;;4.82;100.00;99609.13;5113491;28;20418;-77
2021/01/03 03:20:59;;;;;;;19.83;16.33;;;;;;;4.82;100.00;99598.50;5113547;28;20055;-77
2021/01/03 03:24:04;;;;;;;16.27;14.60;;;;;;;4.81;100.00;99604.78;5113721;28;20382;-77
2021/01/03 03:27:08;;;;;;;24.33;17.30;;;;;;;4.82;100.00;99617.09;5113853;28;20050;-77
2021/01/03 03:30:17;;;;;;;34.20;19.67;;;;;;;4.81;100.00;99605.63;5113395;28;20062;-77
2021/01/03 03:33:21;;;;;;;33.40;18.90;;;;;;;4.79;100.00;99604.88;5113313;28;20366;-76
2021/01/03 03:36:25;;;;;;;34.67;19.20;;;;;;;4.78;100.00;99613.00;5114690;28;20039;-75
2021/01/03 03:39:33;;;;;;;30.98;20.20;;;;;;;4.77;100.00;99624.56;5116994;28;20046;-77
2021/01/03 03:42:38;;;;;;;44.65;19.63;;;;;;;4.78;100.00;99623.63;5116767;28;20066;-76
2021/01/03 03:45:42;;;;;;;53.95;21.52;;;;;;;4.75;100.00;99632.69;5116878;28;20055;-77
2021/01/03 03:48:47;;;;;;;209.05;27.33;;;;;;;4.73;100.00;99628.44;5116905;28;20066;-77
2021/01/03 03:51:56;;;;;;;56.90;22.38;;;;;;;4.70;100.00;99631.31;5116357;28;20043;-76
2021/01/03 03:55:01;;;;;;;59.60;23.60;;;;;;;4.70;100.00;99633.97;5103993;28;20047;-77
2021/01/03 03:58:05;;;;;;;54.10;25.63;;;;;;;4.72;100.00;99632.03;5116163;28;20039;-78
2021/01/03 04:01:09;;;;;;;;;;;;;;;4.67;100.00;99624.41;5117025;28;20050;-76
2021/01/03 04:04:14;;;;;;;62.72;25.95;;;;;;;4.71;100.00;99622.41;5116404;28;19916;-78
2021/01/03 04:07:18;;;;;;;69.60;28.65;;;;;;;4.64;100.00;99613.19;5116393;28;20063;-78
2021/01/03 04:10:23;;;;;;;80.93;31.67;;;;;;;4.68;100.00;99625.28;5103837;28;20039;-78
2021/01/03 04:13:27;;;;;;;93.15;31.25;;;;;;;4.69;100.00;99630.47;5103616;28;20066;-78
2021/01/03 04:16:31;;;;;;;72.65;31.98;;;;;;;4.70;100.00;99641.94;5116041;28;20042;-77
2021/01/03 04:19:35;;;;;;;95.90;33.20;;;;;;;4.70;100.00;99650.78;5115845;28;20043;-77
2021/01/03 04:22:40;;;;;;;63.88;30.83;;;;;;;4.70;100.00;99641.94;5116334;28;20054;-77
2021/01/03 04:25:44;;;;;;;84.53;33.92;;;;;;;4.73;100.00;99639.06;5116017;28;20378;-76
2021/01/03 04:28:49;;;;;;;89.90;35.53;;;;;;;4.75;100.00;99650.44;5115939;28;20066;-78
2021/01/03 04:31:58;;;;;;;61.70;33.50;;;;;;;4.76;100.00;99647.69;5091724;28;20062;-78
2021/01/03 04:35:04;;;;;;;57.08;34.05;;;;;;;4.81;100.00;99655.31;5094212;28;20055;-76
2021/01/03 04:38:08;;;;;;;72.63;34.42;;;;;;;4.82;100.00;99654.31;5095028;28;20051;-77
2021/01/03 04:41:23;;;;;;;68.30;35.38;;;;;;;4.80;100.00;99657.09;5095411;28;20055;-78
2021/01/03 04:44:43;;;;;;;75.88;34.72;;;;;;;4.79;100.00;99673.19;5095113;28;20051;-77
2021/01/03 04:47:53;;;;;;;76.53;35.67;;;;;;;4.78;100.00;99671.47;5094951;28;20051;-78
2021/01/03 04:51:17;;;;;;;71.90;33.53;;;;;;;4.81;100.00;99673.91;5095084;28;20066;-78
2021/01/03 04:54:25;;;;;;;72.20;32.45;;;;;;;4.80;100.00;99670.41;5095097;28;20055;-76
2021/01/03 04:57:44;;;;;;;66.15;32.17;;;;;;;4.84;100.00;99671.03;5094622;28;20051;-77
2021/01/03 05:01:16;;;;;;;73.07;31.15;;;;;;;4.86;100.00;99669.09;5094887;28;20058;-77
2021/01/03 05:04:45;;;;;;;73.55;31.45;;;;;;;4.85;100.00;99664.72;5094595;28;20051;-78
2021/01/03 05:08:30;;;;;;;113.07;35.22;;;;;;;4.76;100.00;99678.72;5094737;28;20063;-77
2021/01/03 05:11:59;;;;;;;118.70;38.80;;;;;;;4.75;100.00;99674.34;5084614;28;20467;-78
2021/01/03 05:15:13;;;;;;;88.93;37.10;;;;;;;4.80;100.00;99677.53;5094679;28;20036;-76
2021/01/03 05:18:18;;;;;;;146.05;43.15;;;;;;;4.79;100.00;99681.16;5094296;28;20051;-77
2021/01/03 05:21:23;;;;;;;111.15;46.67;;;;;;;4.73;100.00;99692.22;5093893;28;20040;-78
2021/01/03 05:24:40;;;;;;;106.28;49.08;;;;;;;4.79;100.00;99699.78;5094424;28;20052;-77
2021/01/03 05:28:03;;;;;;;112.28;47.47;;;;;;;4.76;100.00;99698.19;5081409;28;20048;-78
2021/01/03 05:31:14;;;;;;;149.93;49.67;;;;;;;4.76;100.00;99692.00;5074098;28;20036;-76
2021/01/03 05:34:31;;;;;;;122.30;50.38;;;;;;;4.71;100.00;99700.34;5075360;28;20057;-78
2021/01/03 05:37:41;;;;;;;140.82;52.35;;;;;;;4.76;100.00;99700.00;5094257;28;20044;-76
2021/01/03 05:40:45;;;;;;;106.57;46.67;;;;;;;4.84;100.00;99702.94;5094151;28;20048;-77
2021/01/03 05:43:55;;;;;;;117.78;47.03;;;;;;;4.81;100.00;99711.13;5094213;28;20052;-76
2021/01/03 05:47:04;;;;;;;123.53;48.25;;;;;;;4.85;100.00;99723.22;5094273;28;20035;-75
2021/01/03 05:50:21;;;;;;;118.05;47.35;;;;;;;4.83;100.00;99722.50;5101690;28;20036;-77
2021/01/03 05:53:29;;;;;;;105.22;45.58;;;;;;;4.84;100.00;99727.69;5114130;28;20043;-75
2021/01/03 05:56:35;;;;;;;181.40;50.88;;;;;;;4.74;100.00;99731.16;5114352;28;20039;-77
2021/01/03 05:59:43;;;;;;;244.02;53.03;;;;;;;4.80;100.00;99734.19;5100710;28;20044;-78
2021/01/03 06:02:47;;;;;;;145.27;51.28;;;;;;;4.75;100.00;99723.06;5114216;28;20036;-78
2021/01/03 06:06:01;;;;;;;180.48;55.95;;;;;;;4.71;100.00;99720.75;5101420;28;20063;-78
2021/01/03 06:09:05;;;;;;;174.88;55.97;;;;;;;4.80;100.00;99728.03;5113823;28;20048;-78
2021/01/03 06:12:17;;;;;;;198.40;62.03;;;;;;;4.82;100.00;99742.06;5101564;28;20047;-75
2021/01/03 06:15:22;;;;;;;160.68;58.83;;;;;;;4.80;100.00;99750.16;5113916;28;20038;-76
2021/01/03 06:18:45;;;;;;;185.50;60.95;;;;;;;4.76;100.00;99753.16;5113859;28;20058;-78
2021/01/03 06:21:53;;;;;;;196.45;61.00;;;;;;;4.76;100.00;99756.66;5114016;28;20044;-76
2021/01/03 06:24:59;;;;;;;124.88;58.90;;;;;;;4.75;100.00;99743.47;5113926;28;20474;-78
2021/01/03 06:28:34;;;;;;;210.70;65.38;;;;;;;4.71;100.00;99750.00;5101502;28;20039;-77
2021/01/03 06:31:41;;;;;;;213.82;61.28;;;;;;;4.70;100.00;99764.22;5114495;28;20043;-77
2021/01/03 06:35:02;;;;;;;191.23;61.10;;;;;;;4.70;100.00;99764.22;5113750;28;20051;-77
2021/01/03 06:38:13;;;;;;;140.85;56.83;;;;;;;4.67;100.00;99767.13;5100322;28;20043;-78
2021/01/03 06:41:41;;;;;;;176.48;61.28;;;;;;;4.66;100.00;99774.25;5096105;28;20052;-77
2021/01/03 06:45:29;;;;;;;142.88;57.30;;;;;;;4.68;100.00;99768.81;5101277;28;20043;-79
2021/01/03 06:48:45;;;;;;;140.20;56.00;;;;;;;4.70;100.00;99775.72;5114356;28;20044;-77
2021/01/03 06:52:20;;;;;;;133.25;53.92;;;;;;;4.69;100.00;99781.97;5101435;28;20039;-78
2021/01/03 06:55:58;;;;;;;132.52;55.58;;;;;;;4.73;100.00;99787.94;5073448;28;20044;-77
2021/01/03 06:59:21;;;;;;;118.80;53.83;;;;;;;4.67;100.00;99778.59;5072881;28;20040;-79
2021/01/03 07:02:26;;;;;;;123.20;51.03;;;;;;;4.65;100.00;99777.00;5086279;28;20031;-77
2021/01/03 07:05:30;;;;;;;154.35;50.05;;;;;;;4.68;100.00;99771.47;5109242;28;20040;-78
2021/01/03 07:08:48;;;;;;;256.23;53.47;;;;;;;4.64;100.00;99788.59;5093330;28;20048;-77
2021/01/03 07:11:58;;;;;;;306.08;57.42;;;;;;;4.55;100.00;99780.34;5095950;28;20040;-78
2021/01/03 07:15:08;;;;;;;137.55;51.97;;;;;;;4.59;100.00;99776.47;5097463;28;20040;-78
2021/01/03 07:18:27;;;;;;;144.05;52.13;;;;;;;4.61;100.00;99781.72;5097433;28;20044;-77
2021/01/03 07:21:43;;;;;;;121.70;49.42;;;;;;;4.66;100.00;99781.38;5097687;28;20040;-78
2021/01/03 07:24:51;;;;;;;199.23;53.88;;;;;;;4.65;100.00;99804.44;5097269;28;20073;-77
2021/01/03 07:28:10;;;;;;;195.48;51.42;;;;;;;4.58;100.00;99805.84;5084249;28;20044;-77
2021/01/03 07:31:24;;;;;;;127.10;51.25;;;;;;;4.62;100.00;99815.28;5097229;28;20044;-77
2021/01/03 07:34:33;;;;;;;97.87;49.67;;;;;;;4.63;100.00;99816.13;5096817;28;20044;-79
2021/01/03 07:37:38;;;;;;;270.02;51.78;;;;;;;4.56;100.00;99827.22;5096739;28;20118;-78
2021/01/03 07:41:04;;;;;;;191.07;50.38;;;;;;;4.60;100.00;99822.53;5084131;28;20479;-78
2021/01/03 07:44:20;;;;;;;155.25;48.97;;;;;;;4.75;100.00;99828.53;5087028;28;20039;-78
2021/01/03 07:47:38;;;;;;;256.85;47.75;;;;;;;4.77;100.00;99826.59;5076020;28;20036;-78
2021/01/03 07:50:43;;;;;;;236.13;45.50;;;;;;;4.75;100.00;99829.38;5064099;28;20048;-77
2021/01/03 07:53:50;;;;;;;82.88;42.65;;;;;;;4.77;100.00;99826.59;5076356;28;20049;-77
2021/01/03 07:56:54;;;;;;;101.93;44.28;;;;;;;4.86;100.00;99833.94;5097030;28;20393;-77
2021/01/03 07:59:59;;;;;;;79.70;43.28;;;;;;;4.96;100.00;99832.31;5116924;28;20031;-78
2021/01/03 08:03:14;;;;;;;116.55;42.50;;;;;;;5.13;100.00;99822.13;5104563;28;20055;-78
2021/01/03 08:06:19;;;;;;;83.15;39.92;;;;;;;5.31;100.00;99816.41;5116802;28;20458;-77
2021/01/03 08:09:26;;;;;;;79.50;36.53;;;;;;;5.37;100.00;99821.25;5116891;28;20054;-75
2021/01/03 08:12:40;;;;;;;73.40;33.30;;;;;;;5.46;100.00;99829.41;5116280;28;20054;-79
2021/01/03 08:15:44;;;;;;;54.25;32.25;;;;;;;5.50;100.00;99848.66;5116720;28;20074;-77
2021/01/03 08:19:21;;;;;;;47.53;32.58;;;;;;;5.56;100.00;99856.16;5116637;28;20047;-77
2021/01/03 08:22:27;;;;;;;50.40;29.27;;;;;;;5.56;100.00;99843.72;5115900;28;20054;-76
2021/01/03 08:25:32;;;;;;;31.98;26.92;;;;;;;5.67;100.00;99843.75;5096505;28;20522;-78
2021/01/03 08:28:54;;;;;;;33.83;25.08;;;;;;;5.83;100.00;99851.41;5096020;28;20125;-78
2021/01/03 08:32:04;;;;;;;43.95;24.83;;;;;;;6.16;100.00;99854.19;5095506;28;20402;-78
2021/01/03 08:35:15;;;;;;;31.60;24.92;;;;;;;7.23;100.00;99858.00;5095322;28;20051;-78
2021/01/03 08:38:28;;;;;;;23.17;19.95;;;;;;;7.60;100.00;99856.66;5083450;28;20047;-77
2021/01/03 08:41:55;;;;;;;18.88;16.88;;;;;;;7.90;98.26;99855.88;5095741;28;20066;-77
2021/01/03 08:44:59;;;;;;;18.25;15.35;;;;;;;7.86;96.06;99862.47;5095596;28;20039;-79
2021/01/03 08:48:06;;;;;;;85.22;62.35;;;;;;;7.69;93.72;99873.72;5095812;28;20059;-82
2021/01/03 08:51:16;;;;;;;23.35;19.15;;;;;;;7.72;91.90;99876.16;5082993;28;20047;-84
2021/01/03 08:54:23;;;;;;;23.05;19.15;;;;;;;7.84;88.88;99883.13;5095474;28;20067;-81
2021/01/03 08:57:27;;;;;;;17.33;15.13;;;;;;;7.84;87.99;99885.81;5082387;28;20047;-82
2021/01/03 09:00:35;;;;;;;18.05;15.30;;;;;;;8.01;87.03;99871.00;5095421;28;20379;-82
2021/01/03 09:03:39;;;;;;;21.02;16.98;;;;;;;8.16;87.00;99875.91;5071491;28;20051;-81
2021/01/03 09:06:49;;;;;;;19.13;16.52;;;;;;;9.67;83.11;99872.22;5095613;28;20478;-81
2021/01/03 09:09:54;;;;;;;16.67;14.85;;;;;;;9.32;79.86;99887.97;5095319;28;20059;-79
2021/01/03 09:13:26;;;;;;;15.35;13.73;;;;;;;9.04;80.90;99894.94;5095137;28;20055;-79
2021/01/03 09:16:39;;;;;;;18.52;14.65;;;;;;;8.83;80.93;99897.69;5095097;28;20047;-79
2021/01/03 09:20:06;;;;;;;17.63;14.27;;;;;;;8.08;83.31;99906.91;5094792;28;20051;-79
2021/01/03 09:23:19;;;;;;;16.83;15.02;;;;;;;7.71;85.87;99910.03;5080803;28;20281;-78
2021/01/03 09:26:32;;;;;;;21.92;18.80;;;;;;;7.54;86.76;99917.72;5093458;28;20513;-80
2021/01/03 09:29:41;;;;;;;28.17;20.45;;;;;;;7.16;88.48;99912.81;5080924;28;20067;-78
2021/01/03 09:32:50;;;;;;;24.55;21.15;;;;;;;6.94;89.68;99924.38;5093226;28;20063;-78
2021/01/03 09:36:22;;;;;;;25.80;20.00;;;;;;;6.50;91.30;99919.03;5093425;28;20055;-79
2021/01/03 09:39:54;;;;;;;28.42;23.23;;;;;;;6.47;92.51;99929.94;5094391;28;20055;-79
2021/01/03 09:43:26;;;;;;;24.80;21.33;;;;;;;6.49;93.07;99936.84;5094690;28;20047;-79
2021/01/03 09:46:34;;;;;;;24.63;22.00;;;;;;;6.31;92.91;99926.78;5094663;28;20382;-78
2021/01/03 09:49:52;;;;;;;23.83;20.83;;;;;;;6.32;94.01;99928.47;5094694;28;20059;-79
2021/01/03 09:53:32;;;;;;;27.55;22.15;;;;;;;6.42;93.76;99916.97;5094139;28;20166;-78
2021/01/03 09:56:39;;;;;;;25.67;21.10;;;;;;;6.60;93.18;99917.34;5094543;28;20050;-78
2021/01/03 09:59:53;;;;;;;26.10;22.60;;;;;;;6.77;92.80;99908.88;5094001;28;20043;-78
2021/01/03 10:03:19;;;;;;;24.13;21.30;;;;;;;6.71;92.56;99906.72;5094327;28;20059;-79
2021/01/03 10:06:33;;;;;;;25.65;21.92;;;;;;;6.73;92.88;99917.25;5094589;28;20051;-79
2021/01/03 10:09:37;;;;;;;23.25;20.02;;;;;;;7.04;92.51;99916.50;5081847;28;20058;-78
2021/01/03 10:12:42;;;;;;;20.48;18.35;;;;;;;7.74;91.62;99911.59;5093974;28;20055;-80
2021/01/03 10:15:50;;;;;;;19.23;16.80;;;;;;;8.41;87.79;99896.06;5094143;28;20584;-80
2021/01/03 10:18:55;;;;;;;17.60;15.77;;;;;;;9.13;84.31;99891.47;5081533;28;20047;-79
2021/01/03 10:21:59;;;;;;;15.65;13.98;;;;;;;10.00;80.90;99897.75;5095155;28;20055;-80
2021/01/03 10:25:08;;;;;;;18.40;14.05;;;;;;;10.54;78.52;99906.03;5092826;28;20047;-79
2021/01/03 10:28:15;;;;;;;16.15;14.50;;;;;;;11.13;75.95;99908.34;5093265;28;20047;-79
2021/01/03 10:31:19;;;;;;;18.38;16.00;;;;;;;11.30;74.08;99901.31;5093736;28;20047;-79
2021/01/03 10:34:25;;;;;;;21.67;17.65;;;;;;;10.95;74.96;99904.75;5081043;28;20054;-79
2021/01/03 10:37:29;;;;;;;18.50;16.50;;;;;;;10.51;75.99;99892.91;5092815;28;20505;-79
2021/01/03 10:40:35;;;;;;;16.77;14.98;;;;;;;10.37;75.88;99898.69;5068146;28;20490;-78
2021/01/03 10:43:39;;;;;;;18.10;16.13;;;;;;;10.28;77.18;99894.22;5091540;28;20043;-79
2021/01/03 10:46:47;;;;;;;15.77;14.10;;;;;;;10.58;77.00;99904.75;5064152;28;20506;-75
2021/01/03 10:49:51;;;;;;;17.48;14.98;;;;;;;10.85;76.34;99902.09;5064984;28;20052;-79
2021/01/03 10:52:56;;;;;;;16.88;15.07;;;;;;;10.65;75.96;99908.53;5064696;28;20047;-78
2021/01/03 10:56:00;;;;;;;17.70;14.75;;;;;;;10.04;77.41;99901.84;5068953;28;20506;-77
2021/01/03 10:59:06;;;;;;;22.67;17.15;;;;;;;9.40;79.62;99902.38;5097202;28;20395;-77
2021/01/03 11:02:10;;;;;;;22.55;17.48;;;;;;;9.42;81.41;99894.19;5085064;28;20054;-78
2021/01/03 11:05:17;;;;;;;20.42;16.35;;;;;;;9.36;81.29;99886.69;5097484;28;20047;-77
2021/01/03 11:08:21;;;;;;;16.80;13.75;;;;;;;9.43;80.59;99877.97;5084641;28;20513;-78
2021/01/03 11:11:26;;;;;;;16.65;13.77;;;;;;;9.60;80.22;99881.81;5097129;28;20102;-77
2021/01/03 11:14:30;;;;;;;13.43;11.85;;;;;;;9.58;80.55;99883.78;5096719;28;20413;-77
2021/01/03 11:17:35;;;;;;;12.60;11.25;;;;;;;9.58;80.43;99879.25;5084754;28;20047;-77
2021/01/03 11:20:39;;;;;;;15.35;13.30;;;;;;;9.67;80.55;99883.78;5096045;28;20055;-76
2021/01/03 11:23:43;;;;;;;13.85;12.13;;;;;;;10.10;79.29;99882.47;5084393;28;20055;-78
2021/01/03 11:26:48;;;;;;;14.35;12.68;;;;;;;10.14;78.04;99874.06;5096704;28;20414;-77
2021/01/03 11:29:53;;;;;;;15.30;12.35;;;;;;;9.98;78.32;99871.06;5097231;28;20055;-78
2021/01/03 11:32:57;;;;;;;13.45;12.02;;;;;;;9.95;78.41;99883.94;5084101;28;20070;-78
2021/01/03 11:36:01;;;;;;;14.55;12.55;;;;;;;9.94;78.37;99876.88;5084537;28;20047;-79
2021/01/03 11:39:08;;;;;;;12.57;11.27;;;;;;;9.85;78.26;99875.88;5096895;28;20051;-79
2021/01/03 11:42:15;;;;;;;13.85;12.40;;;;;;;9.59;79.51;99872.91;5097178;28;20059;-78
2021/01/03 11:45:21;;;;;;;16.35;12.75;;;;;;;9.54;79.69;99868.97;5096711;28;20071;-78
2021/01/03 11:48:25;;;;;;;15.27;12.68;;;;;;;9.33;79.75;99871.78;5096460;28;20051;-78
2021/01/03 11:51:30;;;;;;;17.38;13.02;;;;;;;9.27;80.59;99866.09;5085045;28;20047;-77
2021/01/03 11:54:35;;;;;;;18.02;14.30;;;;;;;9.04;81.74;99869.00;5096982;28;20419;-77
2021/01/03 11:57:40;;;;;;;17.65;14.82;;;;;;;8.97;81.94;99870.53;5094388;28;20102;-79
2021/01/03 12:00:44;;;;;;;19.20;14.85;;;;;;;8.80;82.68;99868.53;5097054;28;20047;-78
2021/01/03 12:03:49;;;;;;;17.50;14.02;;;;;;;8.87;82.67;99874.16;5096836;28;20047;-78
2021/01/03 12:06:55;;;;;;;14.98;12.82;;;;;;;8.79;83.04;99874.03;5096439;28;20051;-79
2021/01/03 12:10:00;;;;;;;16.75;13.38;;;;;;;8.58;83.83;99876.72;5090613;28;20067;-79
2021/01/03 12:13:05;;;;;;;16.92;13.20;;;;;;;8.49;84.18;99867.66;5090436;28;20055;-82
2021/01/03 12:16:09;;;;;;;16.60;12.40;;;;;;;8.23;83.83;99877.06;5097735;28;20051;-78
2021/01/03 12:19:14;;;;;;;16.52;13.35;;;;;;;8.14;84.91;99879.69;5095120;28;20525;-78
2021/01/03 12:22:18;;;;;;;17.02;13.90;;;;;;;8.18;85.56;99873.09;5093018;28;20043;-79
2021/01/03 12:25:23;;;;;;;17.05;13.82;;;;;;;8.10;85.90;99876.41;5095689;28;20510;-77
2021/01/03 12:28:28;;;;;;;15.88;13.52;;;;;;;8.00;86.52;99880.03;5082833;28;20050;-77
2021/01/03 12:31:39;;;;;;;16.25;13.35;;;;;;;7.98;86.61;99879.28;5075628;28;20044;-77
2021/01/03 12:34:43;;;;;;;16.55;13.18;;;;;;;7.96;87.12;99867.88;5075536;28;20403;-76
2021/01/03 12:37:47;;;;;;;17.05;13.85;;;;;;;7.96;87.56;99852.69;5075975;28;20044;-77
2021/01/03 12:40:52;;;;;;;17.27;14.80;;;;;;;8.04;87.74;99857.38;5081743;28;20055;-78
2021/01/03 12:43:56;;;;;;;19.08;16.38;;;;;;;8.20;87.09;99865.78;5095822;28;20047;-77
2021/01/03 12:47:02;;;;;;;123.95;87.55;;;;;;;8.43;87.00;99854.84;5095040;28;20047;-78
2021/01/03 12:50:07;;;;;;;41.80;30.15;;;;;;;8.60;86.12;99858.72;5078863;28;20067;-78
2021/01/03 12:53:11;;;;;;;16.15;13.27;;;;;;;8.64;86.08;99864.66;5095248;28;20047;-79
2021/01/03 12:56:17;;;;;;;14.90;11.68;;;;;;;8.64;86.29;99861.97;5095155;28;20063;-77
2021/01/03 12:59:22;;;;;;;14.32;11.68;;;;;;;8.64;86.78;99859.31;5093644;28;20509;-79
2021/01/03 13:02:26;;;;;;;15.27;11.25;;;;;;;8.63;87.17;99863.81;5095319;28;20051;-80
2021/01/03 13:05:31;;;;;;;16.67;12.40;;;;;;;8.71;86.64;99865.81;5094443;28;20055;-83
2021/01/03 13:08:35;;;;;;;14.25;10.82;;;;;;;8.68;86.90;99863.41;5082010;28;20068;-81
2021/01/03 13:11:39;;;;;;;;;;;;;;;8.59;86.93;99866.88;5094621;28;20067;-82
2021/01/03 13:14:43;;;;;;;12.45;10.00;;;;;;;8.52;87.36;99862.06;5082692;28;20354;-79
2021/01/03 13:17:47;;;;;;;13.70;11.07;;;;;;;8.40;87.93;99863.13;5094406;28;20055;-80
2021/01/03 13:20:52;;;;;;;13.80;10.13;;;;;;;8.22;89.40;99870.03;5093785;28;20062;-78
2021/01/03 13:23:57;;;;;;;15.43;11.02;;;;;;;8.16;89.06;99877.72;5094871;28;20055;-80
2021/01/03 13:27:02;;;;;;;13.68;11.50;;;;;;;8.17;89.09;99871.41;5094359;28;20051;-78
2021/01/03 13:30:07;;;;;;;14.15;12.40;;;;;;;7.96;89.79;99868.72;5081806;28;20047;-77
2021/01/03 13:33:12;;;;;;;19.40;17.30;;;;;;;7.84;90.11;99875.97;5092986;28;20153;-77
2021/01/03 13:36:16;;;;;;;17.20;15.40;;;;;;;7.86;90.91;99890.03;5069368;28;20071;-78
2021/01/03 13:39:21;;;;;;;16.00;13.80;;;;;;;7.81;90.79;99881.56;5079307;28;20051;-77
2021/01/03 13:42:25;;;;;;;16.50;14.32;;;;;;;7.85;90.54;99891.00;5092209;28;20051;-78
2021/01/03 13:45:31;;;;;;;17.05;13.82;;;;;;;7.91;90.76;99876.28;5092423;28;20059;-76
2021/01/03 13:48:36;;;;;;;15.52;12.95;;;;;;;7.98;90.65;99882.81;5094257;28;20051;-77
2021/01/03 13:51:40;;;;;;;15.48;12.77;;;;;;;8.08;90.30;99888.22;5081074;28;20051;-78
2021/01/03 13:54:44;;;;;;;14.88;13.30;;;;;;;8.15;89.66;99884.88;5093673;28;20055;-77
2021/01/03 13:57:49;;;;;;;18.05;14.82;;;;;;;8.08;90.00;99881.06;5081983;28;20051;-77
2021/01/03 14:00:53;;;;;;;18.77;15.18;;;;;;;8.12;89.71;99876.31;5093296;28;20050;-77
2021/01/03 14:03:57;;;;;;;21.35;16.30;;;;;;;8.16;89.89;99881.25;5074518;28;20050;-76
2021/01/03 14:07:03;;;;;;;66.38;48.95;;;;;;;8.25;90.33;99890.28;5091290;28;20093;-77
2021/01/03 14:10:08;;;;;;;75.50;54.70;;;;;;;8.24;90.14;99881.47;5091326;28;20059;-77
2021/01/03 14:13:13;;;;;;;38.25;30.05;;;;;;;8.22;90.81;99878.03;5093827;28;20047;-78
2021/01/03 14:16:25;;;;;;;24.40;20.25;;;;;;;8.21;90.74;99887.06;5061487;28;20059;-77
2021/01/03 14:19:32;;;;;;;18.92;15.55;;;;;;;8.16;91.00;99881.25;5096197;28;20051;-75
2021/01/03 14:22:38;;;;;;;16.90;14.43;;;;;;;8.12;90.51;99887.81;5082225;28;20055;-75
2021/01/03 14:25:44;;;;;;;18.90;15.63;;;;;;;7.98;91.45;99882.81;5081521;28;20055;-76
2021/01/03 14:28:48;;;;;;;17.80;14.75;;;;;;;7.87;91.17;99886.38;5095941;28;20050;-76
2021/01/03 14:32:04;;;;;;;18.85;14.85;;;;;;;7.77;91.61;99879.28;5091339;28;20495;-75